sensor_id;sensor_type;location;lat;lon;timestamp;temperature;humidity
18163;DHT22;9206;50.994;4.538;2023-04-29T00:01:31;10.90;99.90
18163;DHT22;9206;50.994;4.538;2023-04-29T00:04:22;10.90;99.90
18163;DHT22;9206;50.994;4.538;2023-04-29T00:07:09;10.90;99.90
18163;DHT22;9206;50.994;4.538;2023-04-29T00:10:07;10.80;99.90
18163;DHT22;9206;50.994;4.538;2023-04-29T00:12:54;10.80;99.90
18163;DHT22;9206;50.994;4.538;2023-04-29T00:15:44;10.80;99.90
18163;DHT22;9206;50.994;4.538;2023-04-29T00:18:37;10.80;99.90
18163;DHT22;9206;50.994;4.538;2023-04-29T00:21:31;10.80;99.90
18163;DHT22;9206;50.994;4.538;2023-04-29T00:24:19;10.80;99.90
18163;DHT22;9206;50.994;4.538;2023-04-29T00:27:08;10.70;99.90
18163;DHT22;9206;50.994;4.538;2023-04-29T00:29:56;10.80;99.90
18163;DHT22;9206;50.994;4.538;2023-04-29T00:32:45;10.70;99.90
18163;DHT22;9206;50.994;4.538;2023-04-29T00:35:35;10.70;99.90
18163;DHT22;9206;50.994;4.538;2023-04-29T00:38:28;10.70;99.90
18163;DHT22;9206;50.994;4.538;2023-04-29T00:41:16;10.70;99.90
18163;DHT22;9206;50.994;4.538;2023-04-29T00:44:05;10.60;99.90
18163;DHT22;9206;50.994;4.538;2023-04-29T00:46:54;10.60;99.90
18163;DHT22;9206;50.994;4.538;2023-04-29T00:49:46;10.60;99.90
18163;DHT22;9206;50.994;4.538;2023-04-29T00:52:34;10.60;99.90
18163;DHT22;9206;50.994;4.538;2023-04-29T00:55:25;10.60;99.90
18163;DHT22;9206;50.994;4.538;2023-04-29T00:58:14;10.60;99.90
18163;DHT22;9206;50.994;4.538;2023-04-29T01:01:05;10.50;99.90
18163;DHT22;9206;50.994;4.538;2023-04-29T01:03:56;10.50;99.90
18163;DHT22;9206;50.994;4.538;2023-04-29T01:06:59;10.50;99.90
18163;DHT22;9206;50.994;4.538;2023-04-29T01:09:54;10.50;99.90
18163;DHT22;9206;50.994;4.538;2023-04-29T01:12:45;10.50;99.90
18163;DHT22;9206;50.994;4.538;2023-04-29T01:15:40;10.40;99.90
18163;DHT22;9206;50.994;4.538;2023-04-29T01:18:33;10.40;99.90
18163;DHT22;9206;50.994;4.538;2023-04-29T01:21:28;10.50;99.90
18163;DHT22;9206;50.994;4.538;2023-04-29T01:24:18;10.40;99.90
18163;DHT22;9206;50.994;4.538;2023-04-29T01:27:12;10.40;99.90
18163;DHT22;9206;50.994;4.538;2023-04-29T01:30:11;10.40;99.90
18163;DHT22;9206;50.994;4.538;2023-04-29T01:33:15;10.40;99.90
18163;DHT22;9206;50.994;4.538;2023-04-29T01:36:12;10.30;99.90
18163;DHT22;9206;50.994;4.538;2023-04-29T01:39:10;10.30;99.90
18163;DHT22;9206;50.994;4.538;2023-04-29T01:42:07;10.30;99.90
18163;DHT22;9206;50.994;4.538;2023-04-29T01:45:15;10.30;99.90
18163;DHT22;9206;50.994;4.538;2023-04-29T01:48:12;10.20;99.90
18163;DHT22;9206;50.994;4.538;2023-04-29T01:51:00;10.20;99.90
18163;DHT22;9206;50.994;4.538;2023-04-29T01:53:51;10.20;99.90
18163;DHT22;9206;50.994;4.538;2023-04-29T01:56:41;10.20;99.90
18163;DHT22;9206;50.994;4.538;2023-04-29T01:59:36;10.20;99.90
18163;DHT22;9206;50.994;4.538;2023-04-29T02:02:29;10.20;99.90
18163;DHT22;9206;50.994;4.538;2023-04-29T02:05:23;10.10;99.90
18163;DHT22;9206;50.994;4.538;2023-04-29T02:08:13;10.20;99.90
18163;DHT22;9206;50.994;4.538;2023-04-29T02:11:01;10.20;99.90
18163;DHT22;9206;50.994;4.538;2023-04-29T02:13:48;10.10;99.90
18163;DHT22;9206;50.994;4.538;2023-04-29T02:16:43;10.10;99.90
18163;DHT22;9206;50.994;4.538;2023-04-29T02:19:36;10.10;99.90
18163;DHT22;9206;50.994;4.538;2023-04-29T02:22:30;10.10;99.90
18163;DHT22;9206;50.994;4.538;2023-04-29T02:25:17;10.10;99.90
18163;DHT22;9206;50.994;4.538;2023-04-29T02:28:05;10.10;99.90
18163;DHT22;9206;50.994;4.538;2023-04-29T02:30:52;10.10;99.90
18163;DHT22;9206;50.994;4.538;2023-04-29T02:33:45;10.10;99.90
18163;DHT22;9206;50.994;4.538;2023-04-29T02:36:35;10.00;99.90
18163;DHT22;9206;50.994;4.538;2023-04-29T02:39:25;10.00;99.90
18163;DHT22;9206;50.994;4.538;2023-04-29T02:42:13;10.00;99.90
18163;DHT22;9206;50.994;4.538;2023-04-29T02:45:08;10.00;99.90
18163;DHT22;9206;50.994;4.538;2023-04-29T02:47:56;10.00;99.90
18163;DHT22;9206;50.994;4.538;2023-04-29T02:50:46;10.00;99.90
18163;DHT22;9206;50.994;4.538;2023-04-29T02:53:39;10.00;99.90
18163;DHT22;9206;50.994;4.538;2023-04-29T02:56:27;10.00;99.90
18163;DHT22;9206;50.994;4.538;2023-04-29T02:59:20;10.00;99.90
18163;DHT22;9206;50.994;4.538;2023-04-29T03:02:13;10.00;99.90
18163;DHT22;9206;50.994;4.538;2023-04-29T03:05:09;10.00;99.90
18163;DHT22;9206;50.994;4.538;2023-04-29T03:07:58;10.00;99.90
18163;DHT22;9206;50.994;4.538;2023-04-29T03:10:58;10.00;99.90
18163;DHT22;9206;50.994;4.538;2023-04-29T03:13:46;9.90;99.90
18163;DHT22;9206;50.994;4.538;2023-04-29T03:16:37;9.90;99.90
18163;DHT22;9206;50.994;4.538;2023-04-29T03:19:30;9.90;99.90
18163;DHT22;9206;50.994;4.538;2023-04-29T03:22:21;9.90;99.90
18163;DHT22;9206;50.994;4.538;2023-04-29T03:25:12;9.90;99.90
18163;DHT22;9206;50.994;4.538;2023-04-29T03:28:05;9.90;99.90
18163;DHT22;9206;50.994;4.538;2023-04-29T03:30:52;9.90;99.90
18163;DHT22;9206;50.994;4.538;2023-04-29T03:33:54;9.90;99.90
18163;DHT22;9206;50.994;4.538;2023-04-29T03:36:42;9.90;99.90
18163;DHT22;9206;50.994;4.538;2023-04-29T03:39:30;9.90;99.90
18163;DHT22;9206;50.994;4.538;2023-04-29T03:42:20;9.90;99.90
18163;DHT22;9206;50.994;4.538;2023-04-29T03:45:08;9.90;99.90
18163;DHT22;9206;50.994;4.538;2023-04-29T03:48:01;9.90;99.90
18163;DHT22;9206;50.994;4.538;2023-04-29T03:50:48;9.80;99.90
18163;DHT22;9206;50.994;4.538;2023-04-29T03:53:36;9.80;99.90
18163;DHT22;9206;50.994;4.538;2023-04-29T03:56:24;9.80;99.90
18163;DHT22;9206;50.994;4.538;2023-04-29T03:59:14;9.80;99.90
18163;DHT22;9206;50.994;4.538;2023-04-29T04:02:02;9.80;99.90
18163;DHT22;9206;50.994;4.538;2023-04-29T04:04:49;9.80;99.90
18163;DHT22;9206;50.994;4.538;2023-04-29T04:07:36;9.80;99.90
18163;DHT22;9206;50.994;4.538;2023-04-29T04:10:24;9.80;99.90
18163;DHT22;9206;50.994;4.538;2023-04-29T04:13:24;9.80;99.90
18163;DHT22;9206;50.994;4.538;2023-04-29T04:16:19;9.80;99.90
18163;DHT22;9206;50.994;4.538;2023-04-29T04:19:09;9.80;99.90
18163;DHT22;9206;50.994;4.538;2023-04-29T04:21:57;9.80;99.90
18163;DHT22;9206;50.994;4.538;2023-04-29T04:24:47;9.80;99.90
18163;DHT22;9206;50.994;4.538;2023-04-29T04:27:41;9.80;99.90
18163;DHT22;9206;50.994;4.538;2023-04-29T04:30:30;9.80;99.90
18163;DHT22;9206;50.994;4.538;2023-04-29T04:33:19;9.80;99.90
18163;DHT22;9206;50.994;4.538;2023-04-29T04:36:07;9.80;99.90
18163;DHT22;9206;50.994;4.538;2023-04-29T04:38:56;9.80;99.90
18163;DHT22;9206;50.994;4.538;2023-04-29T04:41:45;9.80;99.90
18163;DHT22;9206;50.994;4.538;2023-04-29T04:44:33;9.80;99.90
18163;DHT22;9206;50.994;4.538;2023-04-29T04:47:21;9.80;99.90
18163;DHT22;9206;50.994;4.538;2023-04-29T04:50:12;9.80;99.90
18163;DHT22;9206;50.994;4.538;2023-04-29T04:52:59;9.80;99.90
18163;DHT22;9206;50.994;4.538;2023-04-29T04:55:47;9.80;99.90
18163;DHT22;9206;50.994;4.538;2023-04-29T04:58:36;9.80;99.90
18163;DHT22;9206;50.994;4.538;2023-04-29T05:01:25;9.80;99.90
18163;DHT22;9206;50.994;4.538;2023-04-29T05:04:13;9.80;99.90
18163;DHT22;9206;50.994;4.538;2023-04-29T05:07:05;9.80;99.90
18163;DHT22;9206;50.994;4.538;2023-04-29T05:09:53;9.80;99.90
18163;DHT22;9206;50.994;4.538;2023-04-29T05:12:44;9.80;99.90
18163;DHT22;9206;50.994;4.538;2023-04-29T05:15:32;9.80;99.90
18163;DHT22;9206;50.994;4.538;2023-04-29T05:18:24;9.80;99.90
18163;DHT22;9206;50.994;4.538;2023-04-29T05:21:12;9.80;99.90
18163;DHT22;9206;50.994;4.538;2023-04-29T05:24:02;9.80;99.90
18163;DHT22;9206;50.994;4.538;2023-04-29T05:26:52;9.80;99.90
18163;DHT22;9206;50.994;4.538;2023-04-29T05:29:45;9.80;99.90
18163;DHT22;9206;50.994;4.538;2023-04-29T05:32:39;9.90;99.90
18163;DHT22;9206;50.994;4.538;2023-04-29T05:35:26;9.90;99.90
18163;DHT22;9206;50.994;4.538;2023-04-29T05:38:14;9.90;99.90
18163;DHT22;9206;50.994;4.538;2023-04-29T05:41:04;9.90;99.90
18163;DHT22;9206;50.994;4.538;2023-04-29T05:43:55;9.90;99.90
18163;DHT22;9206;50.994;4.538;2023-04-29T05:46:48;10.00;99.90
18163;DHT22;9206;50.994;4.538;2023-04-29T05:49:40;9.90;99.90
18163;DHT22;9206;50.994;4.538;2023-04-29T05:52:33;9.90;99.90
18163;DHT22;9206;50.994;4.538;2023-04-29T05:55:24;9.90;99.90
18163;DHT22;9206;50.994;4.538;2023-04-29T05:58:16;10.00;99.90
18163;DHT22;9206;50.994;4.538;2023-04-29T06:01:05;10.00;99.90
18163;DHT22;9206;50.994;4.538;2023-04-29T06:03:55;10.10;99.90
18163;DHT22;9206;50.994;4.538;2023-04-29T06:06:48;10.10;99.90
18163;DHT22;9206;50.994;4.538;2023-04-29T06:09:38;10.10;99.90
18163;DHT22;9206;50.994;4.538;2023-04-29T06:12:26;10.10;99.90
18163;DHT22;9206;50.994;4.538;2023-04-29T06:15:20;10.10;99.90
18163;DHT22;9206;50.994;4.538;2023-04-29T06:18:13;10.10;99.90
18163;DHT22;9206;50.994;4.538;2023-04-29T06:21:02;10.10;99.90
18163;DHT22;9206;50.994;4.538;2023-04-29T06:23:58;10.10;99.90
18163;DHT22;9206;50.994;4.538;2023-04-29T06:26:45;10.10;99.90
18163;DHT22;9206;50.994;4.538;2023-04-29T06:29:34;10.10;99.90
18163;DHT22;9206;50.994;4.538;2023-04-29T06:32:24;10.10;99.90
18163;DHT22;9206;50.994;4.538;2023-04-29T06:35:15;10.00;99.90
18163;DHT22;9206;50.994;4.538;2023-04-29T06:38:12;10.10;99.90
18163;DHT22;9206;50.994;4.538;2023-04-29T06:41:02;10.10;99.90
18163;DHT22;9206;50.994;4.538;2023-04-29T06:43:51;10.00;99.90
18163;DHT22;9206;50.994;4.538;2023-04-29T06:46:41;10.00;99.90
18163;DHT22;9206;50.994;4.538;2023-04-29T06:49:30;10.00;99.90
18163;DHT22;9206;50.994;4.538;2023-04-29T06:52:21;10.00;99.90
18163;DHT22;9206;50.994;4.538;2023-04-29T06:55:14;10.00;99.90
18163;DHT22;9206;50.994;4.538;2023-04-29T06:58:08;10.00;99.90
18163;DHT22;9206;50.994;4.538;2023-04-29T07:00:56;10.00;99.90
18163;DHT22;9206;50.994;4.538;2023-04-29T07:03:44;10.10;99.90
18163;DHT22;9206;50.994;4.538;2023-04-29T07:06:36;10.10;99.90
18163;DHT22;9206;50.994;4.538;2023-04-29T07:09:24;10.10;99.90
18163;DHT22;9206;50.994;4.538;2023-04-29T07:12:19;10.10;99.90
18163;DHT22;9206;50.994;4.538;2023-04-29T07:15:07;10.20;99.90
18163;DHT22;9206;50.994;4.538;2023-04-29T07:17:56;10.20;99.90
18163;DHT22;9206;50.994;4.538;2023-04-29T07:20:49;10.20;99.90
18163;DHT22;9206;50.994;4.538;2023-04-29T07:23:39;10.20;99.90
18163;DHT22;9206;50.994;4.538;2023-04-29T07:26:29;10.30;99.90
18163;DHT22;9206;50.994;4.538;2023-04-29T07:29:23;10.40;99.90
18163;DHT22;9206;50.994;4.538;2023-04-29T07:32:12;10.40;99.90
18163;DHT22;9206;50.994;4.538;2023-04-29T07:35:04;10.40;99.90
18163;DHT22;9206;50.994;4.538;2023-04-29T07:37:58;10.50;99.90
18163;DHT22;9206;50.994;4.538;2023-04-29T07:40:58;10.60;99.90
18163;DHT22;9206;50.994;4.538;2023-04-29T07:43:52;10.80;99.90
18163;DHT22;9206;50.994;4.538;2023-04-29T07:46:42;11.00;99.90
18163;DHT22;9206;50.994;4.538;2023-04-29T07:49:30;11.10;99.90
18163;DHT22;9206;50.994;4.538;2023-04-29T07:52:31;11.20;99.90
18163;DHT22;9206;50.994;4.538;2023-04-29T07:55:25;11.30;99.90
18163;DHT22;9206;50.994;4.538;2023-04-29T07:58:19;11.50;99.90
18163;DHT22;9206;50.994;4.538;2023-04-29T08:01:10;11.60;99.90
18163;DHT22;9206;50.994;4.538;2023-04-29T08:04:03;11.70;99.90
18163;DHT22;9206;50.994;4.538;2023-04-29T08:06:56;11.90;99.90
18163;DHT22;9206;50.994;4.538;2023-04-29T08:09:47;12.10;99.90
18163;DHT22;9206;50.994;4.538;2023-04-29T08:12:36;12.20;99.90
18163;DHT22;9206;50.994;4.538;2023-04-29T08:15:25;12.30;99.90
18163;DHT22;9206;50.994;4.538;2023-04-29T08:18:13;12.40;99.90
18163;DHT22;9206;50.994;4.538;2023-04-29T08:21:06;12.50;99.90
18163;DHT22;9206;50.994;4.538;2023-04-29T08:23:54;12.50;99.90
18163;DHT22;9206;50.994;4.538;2023-04-29T08:26:45;12.40;99.90
18163;DHT22;9206;50.994;4.538;2023-04-29T08:29:38;12.30;99.90
18163;DHT22;9206;50.994;4.538;2023-04-29T08:32:31;12.40;99.90
18163;DHT22;9206;50.994;4.538;2023-04-29T08:35:23;12.20;99.90
18163;DHT22;9206;50.994;4.538;2023-04-29T08:38:10;12.20;99.90
18163;DHT22;9206;50.994;4.538;2023-04-29T08:40:58;12.30;99.90
18163;DHT22;9206;50.994;4.538;2023-04-29T08:43:46;12.30;99.90
18163;DHT22;9206;50.994;4.538;2023-04-29T08:46:47;12.50;99.90
18163;DHT22;9206;50.994;4.538;2023-04-29T08:49:43;12.60;99.90
18163;DHT22;9206;50.994;4.538;2023-04-29T08:52:37;12.80;99.90
18163;DHT22;9206;50.994;4.538;2023-04-29T08:55:24;12.80;99.90
18163;DHT22;9206;50.994;4.538;2023-04-29T08:58:15;13.00;99.90
18163;DHT22;9206;50.994;4.538;2023-04-29T09:01:06;13.20;99.90
18163;DHT22;9206;50.994;4.538;2023-04-29T09:04:03;13.40;99.90
18163;DHT22;9206;50.994;4.538;2023-04-29T09:06:57;13.40;99.90
18163;DHT22;9206;50.994;4.538;2023-04-29T09:09:45;13.40;99.90
18163;DHT22;9206;50.994;4.538;2023-04-29T09:12:35;13.50;99.90
18163;DHT22;9206;50.994;4.538;2023-04-29T09:15:23;13.60;99.90
18163;DHT22;9206;50.994;4.538;2023-04-29T09:18:40;13.60;99.90
18163;DHT22;9206;50.994;4.538;2023-04-29T09:21:29;13.80;99.90
18163;DHT22;9206;50.994;4.538;2023-04-29T09:24:24;14.00;99.90
18163;DHT22;9206;50.994;4.538;2023-04-29T09:27:26;14.40;99.90
18163;DHT22;9206;50.994;4.538;2023-04-29T09:30:20;14.60;99.90
18163;DHT22;9206;50.994;4.538;2023-04-29T09:33:10;14.90;99.90
18163;DHT22;9206;50.994;4.538;2023-04-29T09:36:00;15.20;99.90
18163;DHT22;9206;50.994;4.538;2023-04-29T09:38:53;15.40;99.90
18163;DHT22;9206;50.994;4.538;2023-04-29T09:41:59;15.80;99.90
18163;DHT22;9206;50.994;4.538;2023-04-29T09:44:53;16.30;99.90
18163;DHT22;9206;50.994;4.538;2023-04-29T09:48:00;16.80;99.90
18163;DHT22;9206;50.994;4.538;2023-04-29T09:50:59;17.20;99.90
18163;DHT22;9206;50.994;4.538;2023-04-29T09:53:47;17.70;99.90
18163;DHT22;9206;50.994;4.538;2023-04-29T09:56:48;18.10;99.90
18163;DHT22;9206;50.994;4.538;2023-04-29T09:59:41;18.30;99.90
18163;DHT22;9206;50.994;4.538;2023-04-29T10:02:29;18.10;99.90
18163;DHT22;9206;50.994;4.538;2023-04-29T10:05:18;18.10;99.90
18163;DHT22;9206;50.994;4.538;2023-04-29T10:08:05;17.70;99.90
18163;DHT22;9206;50.994;4.538;2023-04-29T10:10:58;17.20;99.90
18163;DHT22;9206;50.994;4.538;2023-04-29T10:13:48;17.00;99.90
18163;DHT22;9206;50.994;4.538;2023-04-29T10:16:44;17.00;99.90
18163;DHT22;9206;50.994;4.538;2023-04-29T10:19:38;17.10;99.90
18163;DHT22;9206;50.994;4.538;2023-04-29T10:22:35;17.10;99.90
18163;DHT22;9206;50.994;4.538;2023-04-29T10:25:29;16.90;99.90
18163;DHT22;9206;50.994;4.538;2023-04-29T10:28:21;16.70;99.90
18163;DHT22;9206;50.994;4.538;2023-04-29T10:31:13;16.70;99.90
18163;DHT22;9206;50.994;4.538;2023-04-29T10:34:08;16.60;99.90
18163;DHT22;9206;50.994;4.538;2023-04-29T10:36:58;16.60;99.90
18163;DHT22;9206;50.994;4.538;2023-04-29T10:39:52;16.50;99.90
18163;DHT22;9206;50.994;4.538;2023-04-29T10:42:49;16.50;99.90
18163;DHT22;9206;50.994;4.538;2023-04-29T10:45:43;16.40;99.90
18163;DHT22;9206;50.994;4.538;2023-04-29T10:48:34;16.40;99.90
18163;DHT22;9206;50.994;4.538;2023-04-29T10:51:31;16.60;99.90
18163;DHT22;9206;50.994;4.538;2023-04-29T10:54:19;16.80;99.90
18163;DHT22;9206;50.994;4.538;2023-04-29T10:57:20;16.90;99.90
18163;DHT22;9206;50.994;4.538;2023-04-29T11:00:21;16.90;99.90
18163;DHT22;9206;50.994;4.538;2023-04-29T11:03:48;17.00;99.90
18163;DHT22;9206;50.994;4.538;2023-04-29T11:06:54;16.80;99.90
18163;DHT22;9206;50.994;4.538;2023-04-29T11:09:50;16.40;99.90
18163;DHT22;9206;50.994;4.538;2023-04-29T11:12:44;16.20;99.90
18163;DHT22;9206;50.994;4.538;2023-04-29T11:15:37;16.30;99.90
18163;DHT22;9206;50.994;4.538;2023-04-29T11:18:29;16.20;99.90
18163;DHT22;9206;50.994;4.538;2023-04-29T11:21:18;16.00;99.90
18163;DHT22;9206;50.994;4.538;2023-04-29T11:24:07;16.00;99.90
18163;DHT22;9206;50.994;4.538;2023-04-29T11:26:59;15.80;99.90
18163;DHT22;9206;50.994;4.538;2023-04-29T11:29:52;15.60;99.90
18163;DHT22;9206;50.994;4.538;2023-04-29T11:32:53;15.60;99.90
18163;DHT22;9206;50.994;4.538;2023-04-29T11:35:47;15.70;99.90
18163;DHT22;9206;50.994;4.538;2023-04-29T11:38:40;15.90;99.90
18163;DHT22;9206;50.994;4.538;2023-04-29T11:41:37;16.10;99.90
18163;DHT22;9206;50.994;4.538;2023-04-29T11:44:26;16.40;99.90
18163;DHT22;9206;50.994;4.538;2023-04-29T11:47:15;16.70;99.90
18163;DHT22;9206;50.994;4.538;2023-04-29T11:50:05;16.80;99.90
18163;DHT22;9206;50.994;4.538;2023-04-29T11:53:01;16.90;99.90
18163;DHT22;9206;50.994;4.538;2023-04-29T11:55:59;16.90;99.90
18163;DHT22;9206;50.994;4.538;2023-04-29T11:58:55;16.90;99.90
18163;DHT22;9206;50.994;4.538;2023-04-29T12:01:45;16.60;99.90
18163;DHT22;9206;50.994;4.538;2023-04-29T12:04:34;16.60;99.90
18163;DHT22;9206;50.994;4.538;2023-04-29T12:07:34;16.60;99.90
18163;DHT22;9206;50.994;4.538;2023-04-29T12:10:22;16.30;99.90
18163;DHT22;9206;50.994;4.538;2023-04-29T12:13:11;16.30;99.90
18163;DHT22;9206;50.994;4.538;2023-04-29T12:16:03;16.20;99.90
18163;DHT22;9206;50.994;4.538;2023-04-29T12:18:55;16.40;99.90
18163;DHT22;9206;50.994;4.538;2023-04-29T12:21:51;16.80;99.90
18163;DHT22;9206;50.994;4.538;2023-04-29T12:24:56;17.20;99.90
18163;DHT22;9206;50.994;4.538;2023-04-29T12:27:43;17.60;99.90
18163;DHT22;9206;50.994;4.538;2023-04-29T12:30:34;17.50;99.90
18163;DHT22;9206;50.994;4.538;2023-04-29T12:33:26;17.70;99.90
18163;DHT22;9206;50.994;4.538;2023-04-29T12:36:19;17.70;99.90
18163;DHT22;9206;50.994;4.538;2023-04-29T12:39:10;17.80;99.90
18163;DHT22;9206;50.994;4.538;2023-04-29T12:42:00;17.70;99.90
18163;DHT22;9206;50.994;4.538;2023-04-29T12:44:49;17.60;99.90
18163;DHT22;9206;50.994;4.538;2023-04-29T12:47:38;17.60;99.90
18163;DHT22;9206;50.994;4.538;2023-04-29T12:50:39;17.70;99.90
18163;DHT22;9206;50.994;4.538;2023-04-29T12:53:32;17.90;99.90
18163;DHT22;9206;50.994;4.538;2023-04-29T12:56:22;18.00;99.90
18163;DHT22;9206;50.994;4.538;2023-04-29T12:59:16;18.30;99.90
18163;DHT22;9206;50.994;4.538;2023-04-29T13:02:09;18.70;99.90
18163;DHT22;9206;50.994;4.538;2023-04-29T13:04:58;18.80;99.90
18163;DHT22;9206;50.994;4.538;2023-04-29T13:07:53;19.10;99.90
18163;DHT22;9206;50.994;4.538;2023-04-29T13:10:47;19.40;99.90
18163;DHT22;9206;50.994;4.538;2023-04-29T13:13:38;19.60;99.90
18163;DHT22;9206;50.994;4.538;2023-04-29T13:20:18;20.00;99.90
18163;DHT22;9206;50.994;4.538;2023-04-29T13:23:09;20.00;99.90
18163;DHT22;9206;50.994;4.538;2023-04-29T13:25:58;20.00;99.90
18163;DHT22;9206;50.994;4.538;2023-04-29T13:28:49;19.80;99.90
18163;DHT22;9206;50.994;4.538;2023-04-29T13:31:42;19.60;99.90
18163;DHT22;9206;50.994;4.538;2023-04-29T13:34:32;19.60;99.90
18163;DHT22;9206;50.994;4.538;2023-04-29T13:37:23;19.70;99.90
18163;DHT22;9206;50.994;4.538;2023-04-29T13:40:17;19.50;99.90
18163;DHT22;9206;50.994;4.538;2023-04-29T13:43:06;19.40;99.90
18163;DHT22;9206;50.994;4.538;2023-04-29T13:49:00;19.30;99.90
18163;DHT22;9206;50.994;4.538;2023-04-29T13:51:52;19.20;99.90
18163;DHT22;9206;50.994;4.538;2023-04-29T13:54:39;19.00;99.90
18163;DHT22;9206;50.994;4.538;2023-04-29T13:57:34;18.80;99.90
18163;DHT22;9206;50.994;4.538;2023-04-29T14:00:22;18.80;99.90
18163;DHT22;9206;50.994;4.538;2023-04-29T14:03:10;18.80;99.90
18163;DHT22;9206;50.994;4.538;2023-04-29T14:05:58;18.80;99.90
18163;DHT22;9206;50.994;4.538;2023-04-29T14:08:51;18.90;99.90
18163;DHT22;9206;50.994;4.538;2023-04-29T14:11:44;19.20;99.90
18163;DHT22;9206;50.994;4.538;2023-04-29T14:14:34;19.50;99.90
18163;DHT22;9206;50.994;4.538;2023-04-29T14:17:24;19.70;99.90
18163;DHT22;9206;50.994;4.538;2023-04-29T14:20:18;20.00;99.90
18163;DHT22;9206;50.994;4.538;2023-04-29T14:23:09;19.80;99.90
18163;DHT22;9206;50.994;4.538;2023-04-29T14:26:02;19.70;99.90
18163;DHT22;9206;50.994;4.538;2023-04-29T14:28:56;19.70;99.90
18163;DHT22;9206;50.994;4.538;2023-04-29T14:31:49;19.90;99.90
18163;DHT22;9206;50.994;4.538;2023-04-29T14:34:46;19.60;99.90
18163;DHT22;9206;50.994;4.538;2023-04-29T14:37:37;19.10;99.90
18163;DHT22;9206;50.994;4.538;2023-04-29T14:40:31;18.90;99.90
18163;DHT22;9206;50.994;4.538;2023-04-29T14:43:26;18.70;99.90
18163;DHT22;9206;50.994;4.538;2023-04-29T14:46:22;18.60;99.90
18163;DHT22;9206;50.994;4.538;2023-04-29T14:49:13;18.30;99.90
18163;DHT22;9206;50.994;4.538;2023-04-29T14:52:00;18.40;99.90
18163;DHT22;9206;50.994;4.538;2023-04-29T14:58:31;18.40;99.90
18163;DHT22;9206;50.994;4.538;2023-04-29T15:01:28;18.30;99.90
18163;DHT22;9206;50.994;4.538;2023-04-29T15:04:17;18.20;99.90
18163;DHT22;9206;50.994;4.538;2023-04-29T15:07:11;18.20;99.90
18163;DHT22;9206;50.994;4.538;2023-04-29T15:10:05;18.20;99.90
18163;DHT22;9206;50.994;4.538;2023-04-29T15:13:00;18.20;99.90
18163;DHT22;9206;50.994;4.538;2023-04-29T15:15:51;18.20;99.90
18163;DHT22;9206;50.994;4.538;2023-04-29T15:18:39;18.10;99.90
18163;DHT22;9206;50.994;4.538;2023-04-29T15:22:04;18.20;99.90
18163;DHT22;9206;50.994;4.538;2023-04-29T15:24:54;18.20;99.90
18163;DHT22;9206;50.994;4.538;2023-04-29T15:28:15;18.30;99.90
18163;DHT22;9206;50.994;4.538;2023-04-29T15:31:17;18.40;99.90
18163;DHT22;9206;50.994;4.538;2023-04-29T15:34:10;18.30;99.90
18163;DHT22;9206;50.994;4.538;2023-04-29T15:37:02;18.20;99.90
18163;DHT22;9206;50.994;4.538;2023-04-29T15:39:49;18.10;99.90
18163;DHT22;9206;50.994;4.538;2023-04-29T15:42:37;18.00;99.90
18163;DHT22;9206;50.994;4.538;2023-04-29T15:45:25;17.80;99.90
18163;DHT22;9206;50.994;4.538;2023-04-29T15:48:40;17.70;99.90
18163;DHT22;9206;50.994;4.538;2023-04-29T15:51:36;17.70;99.90
18163;DHT22;9206;50.994;4.538;2023-04-29T15:54:27;17.70;99.90
18163;DHT22;9206;50.994;4.538;2023-04-29T16:00:37;17.50;99.90
18163;DHT22;9206;50.994;4.538;2023-04-29T16:03:31;17.50;99.90
18163;DHT22;9206;50.994;4.538;2023-04-29T16:06:24;17.40;99.90
18163;DHT22;9206;50.994;4.538;2023-04-29T16:09:37;17.20;99.90
18163;DHT22;9206;50.994;4.538;2023-04-29T16:12:28;17.20;99.90
18163;DHT22;9206;50.994;4.538;2023-04-29T16:15:16;17.20;99.90
18163;DHT22;9206;50.994;4.538;2023-04-29T16:18:20;17.20;99.90
18163;DHT22;9206;50.994;4.538;2023-04-29T16:21:11;17.10;99.90
18163;DHT22;9206;50.994;4.538;2023-04-29T16:23:59;17.10;99.90
18163;DHT22;9206;50.994;4.538;2023-04-29T16:27:05;17.10;99.90
18163;DHT22;9206;50.994;4.538;2023-04-29T16:30:00;17.00;99.90
18163;DHT22;9206;50.994;4.538;2023-04-29T16:32:53;16.90;99.90
18163;DHT22;9206;50.994;4.538;2023-04-29T16:35:41;17.00;99.90
18163;DHT22;9206;50.994;4.538;2023-04-29T16:38:32;16.80;99.90
18163;DHT22;9206;50.994;4.538;2023-04-29T16:41:20;16.80;99.90
18163;DHT22;9206;50.994;4.538;2023-04-29T16:44:10;16.60;99.90
18163;DHT22;9206;50.994;4.538;2023-04-29T16:47:11;16.60;99.90
18163;DHT22;9206;50.994;4.538;2023-04-29T16:49:59;16.50;99.90
18163;DHT22;9206;50.994;4.538;2023-04-29T16:52:51;16.40;99.90
18163;DHT22;9206;50.994;4.538;2023-04-29T16:55:41;16.50;99.90
18163;DHT22;9206;50.994;4.538;2023-04-29T16:58:35;16.60;99.90
18163;DHT22;9206;50.994;4.538;2023-04-29T17:01:27;16.70;99.90
18163;DHT22;9206;50.994;4.538;2023-04-29T17:04:20;16.50;99.90
18163;DHT22;9206;50.994;4.538;2023-04-29T17:07:09;16.40;99.90
18163;DHT22;9206;50.994;4.538;2023-04-29T17:10:01;16.40;99.90
18163;DHT22;9206;50.994;4.538;2023-04-29T17:12:54;16.40;99.90
18163;DHT22;9206;50.994;4.538;2023-04-29T17:15:44;16.30;99.90
18163;DHT22;9206;50.994;4.538;2023-04-29T17:18:44;16.30;99.90
18163;DHT22;9206;50.994;4.538;2023-04-29T17:21:38;16.30;99.90
18163;DHT22;9206;50.994;4.538;2023-04-29T17:24:33;16.30;99.90
18163;DHT22;9206;50.994;4.538;2023-04-29T17:27:23;16.30;99.90
18163;DHT22;9206;50.994;4.538;2023-04-29T17:30:18;16.30;99.90
18163;DHT22;9206;50.994;4.538;2023-04-29T17:33:06;16.20;99.90
18163;DHT22;9206;50.994;4.538;2023-04-29T17:36:01;16.20;99.90
18163;DHT22;9206;50.994;4.538;2023-04-29T17:39:07;16.10;99.90
18163;DHT22;9206;50.994;4.538;2023-04-29T17:42:01;16.10;99.90
18163;DHT22;9206;50.994;4.538;2023-04-29T17:44:50;16.00;99.90
18163;DHT22;9206;50.994;4.538;2023-04-29T17:47:41;16.00;99.90
18163;DHT22;9206;50.994;4.538;2023-04-29T17:50:29;15.90;99.90
18163;DHT22;9206;50.994;4.538;2023-04-29T17:56:20;15.90;99.90
18163;DHT22;9206;50.994;4.538;2023-04-29T17:59:14;15.80;99.90
18163;DHT22;9206;50.994;4.538;2023-04-29T18:02:07;15.70;99.90
18163;DHT22;9206;50.994;4.538;2023-04-29T18:05:09;15.60;99.90
18163;DHT22;9206;50.994;4.538;2023-04-29T18:07:57;15.60;99.90
18163;DHT22;9206;50.994;4.538;2023-04-29T18:10:50;15.60;99.90
18163;DHT22;9206;50.994;4.538;2023-04-29T18:13:39;15.60;99.90
18163;DHT22;9206;50.994;4.538;2023-04-29T18:16:28;15.50;99.90
18163;DHT22;9206;50.994;4.538;2023-04-29T18:19:18;15.50;99.90
18163;DHT22;9206;50.994;4.538;2023-04-29T18:22:09;15.50;99.90
18163;DHT22;9206;50.994;4.538;2023-04-29T18:24:59;15.50;99.90
18163;DHT22;9206;50.994;4.538;2023-04-29T18:28:18;15.50;99.90
18163;DHT22;9206;50.994;4.538;2023-04-29T18:31:06;15.50;99.90
18163;DHT22;9206;50.994;4.538;2023-04-29T18:34:25;15.40;99.90
18163;DHT22;9206;50.994;4.538;2023-04-29T18:37:13;15.20;99.90
18163;DHT22;9206;50.994;4.538;2023-04-29T18:40:03;15.10;99.90
18163;DHT22;9206;50.994;4.538;2023-04-29T18:43:00;15.00;99.90
18163;DHT22;9206;50.994;4.538;2023-04-29T18:45:55;14.90;99.90